createdAt,value
2022-08-17T00:00:43.402Z,87.19
2022-08-17T00:03:17.185Z,87.27
2022-08-17T00:05:50.970Z,87.30
2022-08-17T00:08:24.130Z,87.26
2022-08-17T00:10:54.390Z,87.32
2022-08-17T00:13:26.545Z,87.37
2022-08-17T00:16:02.039Z,87.55
2022-08-17T00:19:06.483Z,87.55
2022-08-17T00:21:23.760Z,87.67
2022-08-17T00:23:52.320Z,87.66
2022-08-17T00:26:43.503Z,87.76
2022-08-17T00:29:09.855Z,87.84
2022-08-17T00:31:49.253Z,87.79
2022-08-17T00:34:17.873Z,87.81
2022-08-17T00:36:46.356Z,87.93
2022-08-17T00:39:14.546Z,87.90
2022-08-17T00:41:42.940Z,87.95
2022-08-17T00:44:12.574Z,87.96
2022-08-17T00:46:44.958Z,87.96
2022-08-17T00:49:14.974Z,88.05
2022-08-17T00:51:48.790Z,88.02
2022-08-17T00:54:31.726Z,88.08
2022-08-17T00:57:10.146Z,88.08
2022-08-17T00:59:44.570Z,88.14
2022-08-17T01:02:15.848Z,88.17
2022-08-17T01:04:47.246Z,88.22
2022-08-17T01:07:17.325Z,88.31
2022-08-17T01:09:45.351Z,88.41
2022-08-17T01:12:13.720Z,88.56
2022-08-17T01:14:42.406Z,88.66
2022-08-17T01:17:10.886Z,88.78
2022-08-17T01:19:42.425Z,88.85
2022-08-17T01:22:15.059Z,89.00
2022-08-17T01:24:48.108Z,88.91
2022-08-17T01:27:18.615Z,88.94
2022-08-17T01:29:54.179Z,88.86
2022-08-17T01:32:22.142Z,88.87
2022-08-17T01:34:50.976Z,89.00
2022-08-17T01:37:21.816Z,88.87
2022-08-17T01:39:55.393Z,88.87
2022-08-17T01:42:49.331Z,88.97
2022-08-17T01:45:30.638Z,88.97
2022-08-17T01:47:58.720Z,88.93
2022-08-17T01:50:32.442Z,88.97
2022-08-17T01:53:04.630Z,89.04
2022-08-17T01:55:41.253Z,89.18
2022-08-17T01:58:10.438Z,89.41
2022-08-17T02:00:58.189Z,89.36
2022-08-17T02:03:34.705Z,89.35
2022-08-17T02:06:05.178Z,89.35
2022-08-17T02:08:38.969Z,89.42
2022-08-17T02:11:14.836Z,89.47
2022-08-17T02:13:45.058Z,89.44
2022-08-17T02:16:13.885Z,89.53
2022-08-17T02:18:42.528Z,89.52
2022-08-17T02:21:11.216Z,89.59
2022-08-17T02:23:47.992Z,89.66
2022-08-17T02:26:26.102Z,89.69
2022-08-17T02:28:55.155Z,89.85
2022-08-17T02:31:23.233Z,89.85
2022-08-17T02:34:00.481Z,89.85
2022-08-17T02:36:35.097Z,89.87
2022-08-17T02:39:06.005Z,89.85
2022-08-17T02:41:34.549Z,89.80
2022-08-17T02:44:02.933Z,89.79
2022-08-17T02:46:31.715Z,89.86
2022-08-17T02:49:00.507Z,89.88
2022-08-17T02:51:28.691Z,89.93
2022-08-17T02:54:35.840Z,89.91
2022-08-17T02:56:45.196Z,89.96
2022-08-17T02:59:13.503Z,89.90
2022-08-17T03:01:41.808Z,89.91
2022-08-17T03:04:09.941Z,89.98
2022-08-17T03:06:38.095Z,90.09
2022-08-17T03:09:06.369Z,90.16
2022-08-17T03:11:35.258Z,90.16
2022-08-17T03:14:03.231Z,90.19
2022-08-17T03:16:31.149Z,90.15
2022-08-17T03:18:59.482Z,90.20
2022-08-17T03:21:27.546Z,90.12
2022-08-17T03:23:55.622Z,90.18
2022-08-17T03:26:23.603Z,90.07
2022-08-17T03:28:57.813Z,90.08
2022-08-17T03:31:25.870Z,90.22
2022-08-17T03:33:54.054Z,90.19
2022-08-17T03:36:22.379Z,90.15
2022-08-17T03:38:50.401Z,90.03
2022-08-17T03:41:20.316Z,90.14
2022-08-17T03:43:48.271Z,90.08
2022-08-17T03:46:35.682Z,90.20
2022-08-17T03:49:27.172Z,90.11
2022-08-17T03:52:15.255Z,90.05
2022-08-17T03:55:04.023Z,90.09
2022-08-17T03:57:32.579Z,90.20
2022-08-17T04:00:00.775Z,90.15
2022-08-17T04:02:32.537Z,90.11
2022-08-17T04:05:01.315Z,90.03
2022-08-17T04:07:31.646Z,89.90
2022-08-17T04:10:00.390Z,89.81
2022-08-17T04:12:42.853Z,89.76
2022-08-17T04:18:07.351Z,89.61
2022-08-17T04:20:35.495Z,89.55
2022-08-17T04:23:11.624Z,89.49
2022-08-17T04:25:43.148Z,89.43
2022-08-17T04:28:15.556Z,89.44
2022-08-17T04:35:47.169Z,89.32
2022-08-17T04:38:27.355Z,89.26
2022-08-17T04:41:15.298Z,89.19
2022-08-17T04:43:45.564Z,89.10
2022-08-17T04:46:19.629Z,89.03
2022-08-17T04:48:50.990Z,88.86
2022-08-17T04:51:40.356Z,88.74
2022-08-17T04:54:21.158Z,88.40
2022-08-17T04:56:49.326Z,88.15
2022-08-17T04:59:21.430Z,88.10
2022-08-17T05:01:51.560Z,88.07
2022-08-17T05:04:34.474Z,88.00
2022-08-17T05:07:04.814Z,87.92
2022-08-17T05:09:32.955Z,87.74
2022-08-17T05:12:02.561Z,87.41
2022-08-17T05:14:32.930Z,87.12
2022-08-17T05:17:07.198Z,86.61
2022-08-17T05:19:37.595Z,85.91
2022-08-17T05:22:06.375Z,85.65
2022-08-17T05:24:42.756Z,85.65
2022-08-17T05:27:23.510Z,85.37
2022-08-17T05:29:52.371Z,85.28
2022-08-17T05:32:39.248Z,85.18
2022-08-17T05:35:11.137Z,85.29
2022-08-17T05:37:39.570Z,85.45
2022-08-17T05:40:08.310Z,85.13
2022-08-17T05:42:36.545Z,84.20
2022-08-17T05:45:05.751Z,83.60
2022-08-17T05:47:33.916Z,83.48
2022-08-17T05:50:02.706Z,83.10
2022-08-17T05:53:11.576Z,80.95
2022-08-17T05:55:59.331Z,77.06
2022-08-17T05:58:55.575Z,76.17
2022-08-17T06:01:35.357Z,75.07
2022-08-17T06:04:19.939Z,72.59
2022-08-17T06:07:05.459Z,70.21
2022-08-17T06:09:36.474Z,68.24
2022-08-17T06:12:59.747Z,67.76
2022-08-17T06:15:36.576Z,65.51
2022-08-17T06:18:08.425Z,64.75
2022-08-17T06:20:47.652Z,64.93
2022-08-17T06:23:41.266Z,64.14
2022-08-17T06:26:16.589Z,63.33
2022-08-17T06:28:51.888Z,62.93
2022-08-17T06:31:51.752Z,62.18
2022-08-17T06:34:21.091Z,62.02
2022-08-17T06:36:54.158Z,61.94
2022-08-17T06:39:46.134Z,61.69
2022-08-17T06:43:02.569Z,60.01
2022-08-17T06:45:34.616Z,61.12
2022-08-17T06:48:13.051Z,63.02
2022-08-17T06:50:55.416Z,64.65
2022-08-17T06:53:41.252Z,66.06
2022-08-17T06:56:11.741Z,66.46
2022-08-17T06:58:43.566Z,67.80
2022-08-17T07:01:19.492Z,68.28
2022-08-17T07:04:06.734Z,68.25
2022-08-17T07:06:50.899Z,68.28
2022-08-17T07:09:38.237Z,68.41
2022-08-17T07:12:16.128Z,67.97
2022-08-17T07:14:54.612Z,67.54
2022-08-17T07:17:46.636Z,66.14
2022-08-17T07:20:18.129Z,65.14
2022-08-17T07:23:04.500Z,64.86
2022-08-17T07:25:33.316Z,65.34
2022-08-17T07:28:07.065Z,64.77
2022-08-17T07:30:49.493Z,64.41
2022-08-17T07:33:33.301Z,63.46
2022-08-17T07:36:01.966Z,61.83
2022-08-17T07:38:35.612Z,60.00
2022-08-17T07:41:07.572Z,56.51
2022-08-17T07:43:41.581Z,54.85
2022-08-17T07:46:53.871Z,55.86
2022-08-17T07:49:32.536Z,55.82
2022-08-17T07:52:48.128Z,55.86
2022-08-17T07:54:58.845Z,55.92
2022-08-17T07:57:35.819Z,54.78
2022-08-17T08:00:16.868Z,53.96
2022-08-17T08:02:58.830Z,53.82
2022-08-17T08:05:49.309Z,53.77
2022-08-17T08:08:26.981Z,52.65
2022-08-17T08:11:02.227Z,52.01
2022-08-17T08:13:32.507Z,51.74
2022-08-17T08:16:21.186Z,51.46
2022-08-17T08:18:55.302Z,51.10
2022-08-17T08:21:31.175Z,48.99
2022-08-17T08:24:19.746Z,48.60
2022-08-17T08:27:10.703Z,48.68
2022-08-17T08:30:06.786Z,48.93
2022-08-17T08:32:57.902Z,48.52
2022-08-17T08:35:31.642Z,47.49
2022-08-17T08:38:20.346Z,46.30
2022-08-17T08:41:19.458Z,45.52
2022-08-17T08:44:01.000Z,45.27
2022-08-17T08:46:50.817Z,46.33
2022-08-17T08:49:45.072Z,47.19
2022-08-17T08:52:34.329Z,47.75
2022-08-17T08:55:34.716Z,48.27
2022-08-17T08:58:08.630Z,49.12
2022-08-17T09:00:58.747Z,47.64
2022-08-17T09:03:51.664Z,47.23
2022-08-17T09:06:58.170Z,47.35
2022-08-17T09:09:40.841Z,48.51
2022-08-17T09:12:25.691Z,47.74
2022-08-17T09:15:17.908Z,46.08
2022-08-17T09:19:01.131Z,44.73
2022-08-17T09:20:55.966Z,42.09
2022-08-17T09:23:49.820Z,42.63
2022-08-17T09:26:25.596Z,42.69
2022-08-17T09:29:01.831Z,41.17
2022-08-17T09:31:47.080Z,40.96
2022-08-17T09:34:29.555Z,39.83
2022-08-17T09:37:20.799Z,38.41
2022-08-17T09:39:48.745Z,38.42
2022-08-17T09:42:50.042Z,39.01
2022-08-17T09:45:41.083Z,39.83
2022-08-17T09:48:12.948Z,40.92
2022-08-17T09:51:04.882Z,41.22
2022-08-17T09:53:38.788Z,41.62
2022-08-17T09:56:28.527Z,41.10
2022-08-17T09:59:08.786Z,39.11
2022-08-17T10:02:05.011Z,39.89
2022-08-17T10:04:51.826Z,37.79
2022-08-17T10:07:47.758Z,37.93
2022-08-17T10:10:30.067Z,39.21
2022-08-17T10:13:26.149Z,40.10
2022-08-17T10:16:02.129Z,40.82
2022-08-17T10:18:44.915Z,41.13
2022-08-17T10:21:35.685Z,41.26
2022-08-17T10:24:28.494Z,42.11
2022-08-17T10:27:00.636Z,43.54
2022-08-17T10:29:49.169Z,44.63
2022-08-17T10:32:32.519Z,43.80
2022-08-17T10:35:07.270Z,44.11
2022-08-17T10:37:54.207Z,44.79
2022-08-17T10:40:48.435Z,46.09
2022-08-17T10:43:57.829Z,46.39
2022-08-17T10:46:52.391Z,44.71
2022-08-17T10:49:23.149Z,41.75
2022-08-17T10:52:12.711Z,40.05
2022-08-17T10:54:47.499Z,37.57
2022-08-17T10:57:31.945Z,35.90
2022-08-17T11:00:02.362Z,35.86
2022-08-17T11:02:51.358Z,35.09
2022-08-17T11:05:29.149Z,35.67
2022-08-17T11:08:46.374Z,35.01
2022-08-17T11:11:40.027Z,36.25
2022-08-17T11:14:17.511Z,35.71
2022-08-17T11:17:11.651Z,34.37
2022-08-17T11:19:39.711Z,33.79
2022-08-17T11:22:32.762Z,33.94
2022-08-17T11:25:31.158Z,32.89
2022-08-17T11:28:26.076Z,33.68
2022-08-17T11:31:10.226Z,32.61
2022-08-17T11:33:45.215Z,31.42
2022-08-17T11:36:29.662Z,31.69
2022-08-17T11:39:15.306Z,30.95
2022-08-17T11:42:20.909Z,30.05
2022-08-17T11:45:08.748Z,29.59
2022-08-17T11:48:27.735Z,28.19
2022-08-17T11:51:46.156Z,27.84
2022-08-17T11:54:32.112Z,28.65
2022-08-17T11:57:25.715Z,30.14
2022-08-17T12:00:00.664Z,31.99
2022-08-17T12:02:31.514Z,33.54
2022-08-17T12:05:14.867Z,36.21
2022-08-17T12:07:52.722Z,37.65
2022-08-17T12:10:32.018Z,38.65
2022-08-17T12:13:07.075Z,38.41
2022-08-17T12:15:40.979Z,38.26
2022-08-17T12:18:18.342Z,38.22
2022-08-17T12:20:56.561Z,38.65
2022-08-17T12:23:29.499Z,38.81
2022-08-17T12:25:59.884Z,39.53
2022-08-17T12:28:34.335Z,40.71
2022-08-17T12:31:31.798Z,41.16
2022-08-17T12:34:00.626Z,40.28
2022-08-17T12:36:29.328Z,39.78
2022-08-17T12:39:14.181Z,39.78
2022-08-17T12:41:52.721Z,40.33
2022-08-17T12:44:22.325Z,41.67
2022-08-17T12:47:21.886Z,42.83
2022-08-17T12:49:52.940Z,43.66
2022-08-17T12:52:33.018Z,42.65
2022-08-17T12:55:05.768Z,39.61
2022-08-17T12:57:41.523Z,37.90
2022-08-17T13:00:17.860Z,35.87
2022-08-17T13:02:58.346Z,34.50
2022-08-17T13:05:29.267Z,33.14
2022-08-17T13:07:59.678Z,32.21
2022-08-17T13:10:33.077Z,31.65
2022-08-17T13:13:06.125Z,31.23
2022-08-17T13:15:44.902Z,29.73
2022-08-17T13:18:48.942Z,28.35
2022-08-17T13:21:30.678Z,28.04
2022-08-17T13:24:10.776Z,29.30
2022-08-17T13:26:44.291Z,28.72
2022-08-17T13:29:37.288Z,26.46
2022-08-17T13:32:13.042Z,27.78
2022-08-17T13:35:12.622Z,28.13
2022-08-17T13:37:35.821Z,29.44
2022-08-17T13:40:09.757Z,30.57
2022-08-17T13:42:53.004Z,32.31
2022-08-17T13:45:40.275Z,33.20
2022-08-17T13:48:13.840Z,34.27
2022-08-17T13:50:43.767Z,36.03
2022-08-17T13:53:50.742Z,37.51
2022-08-17T13:56:45.176Z,39.67
2022-08-17T13:59:36.022Z,39.95
2022-08-17T14:02:18.768Z,39.44
2022-08-17T14:04:48.180Z,39.71
2022-08-17T14:07:18.460Z,39.55
2022-08-17T14:09:54.703Z,39.20
2022-08-17T14:12:27.488Z,38.56
2022-08-17T14:14:56.691Z,37.06
2022-08-17T14:17:29.176Z,36.16
2022-08-17T14:19:58.628Z,34.24
2022-08-17T14:22:35.145Z,34.44
2022-08-17T14:25:04.790Z,36.04
2022-08-17T14:27:52.373Z,34.72
2022-08-17T14:30:25.138Z,33.44
2022-08-17T14:32:54.331Z,32.67
2022-08-17T14:35:24.048Z,31.82
2022-08-17T14:37:53.008Z,31.11
2022-08-17T14:40:25.086Z,29.71
2022-08-17T14:42:55.441Z,28.77
2022-08-17T14:45:30.154Z,28.40
2022-08-17T14:48:07.941Z,27.39
2022-08-17T14:50:38.917Z,27.00
2022-08-17T14:53:10.123Z,27.15
2022-08-17T14:55:40.741Z,26.68
2022-08-17T14:58:09.501Z,25.78
2022-08-17T15:00:39.696Z,25.66
2022-08-17T15:03:07.788Z,25.80
2022-08-17T15:05:38.042Z,26.71
2022-08-17T15:08:07.327Z,27.15
2022-08-17T15:10:36.484Z,28.41
2022-08-17T15:13:23.521Z,28.68
2022-08-17T15:15:52.133Z,28.33
2022-08-17T15:18:20.457Z,28.20
2022-08-17T15:20:50.304Z,28.26
2022-08-17T15:23:22.035Z,28.13
2022-08-17T15:25:52.712Z,28.04
2022-08-17T15:28:25.373Z,27.66
2022-08-17T15:30:54.177Z,28.79
2022-08-17T15:33:29.663Z,28.96
2022-08-17T15:36:03.336Z,29.37
2022-08-17T15:38:34.360Z,30.74
2022-08-17T15:41:03.006Z,32.71
2022-08-17T15:43:33.005Z,35.19
2022-08-17T15:46:12.748Z,36.79
2022-08-17T15:48:42.701Z,38.50
2022-08-17T15:51:21.345Z,39.70
2022-08-17T15:53:58.771Z,39.46
2022-08-17T15:56:29.400Z,38.61
2022-08-17T15:58:58.695Z,37.96
2022-08-17T16:02:15.425Z,37.29
2022-08-17T16:04:30.528Z,36.76
2022-08-17T16:07:00.380Z,37.18
2022-08-17T16:09:29.076Z,38.89
2022-08-17T16:11:57.599Z,40.72
2022-08-17T16:14:32.516Z,41.82
2022-08-17T16:17:05.676Z,41.53
2022-08-17T16:19:54.264Z,41.14
2022-08-17T16:22:33.361Z,41.15
2022-08-17T16:25:06.617Z,42.14
2022-08-17T16:27:35.099Z,42.97
2022-08-17T16:30:06.300Z,43.79
2022-08-17T16:32:34.663Z,45.03
2022-08-17T16:35:06.169Z,45.92
2022-08-17T16:37:35.064Z,46.88
2022-08-17T16:40:07.998Z,47.37
2022-08-17T16:42:38.676Z,48.29
2022-08-17T16:45:17.336Z,48.83
2022-08-17T16:47:46.477Z,49.06
2022-08-17T16:50:18.045Z,49.37
2022-08-17T16:52:50.393Z,49.92
2022-08-17T16:55:21.493Z,50.39
2022-08-17T16:57:50.337Z,51.16
2022-08-17T17:00:19.587Z,51.74
2022-08-17T17:02:49.882Z,52.02
2022-08-17T17:05:43.676Z,52.67
2022-08-17T17:08:25.756Z,53.41
2022-08-17T17:10:56.725Z,54.14
2022-08-17T17:13:44.309Z,54.48
2022-08-17T17:16:12.380Z,55.05
2022-08-17T17:19:03.406Z,55.78
2022-08-17T17:21:42.804Z,56.08
2022-08-17T17:24:17.086Z,56.75
2022-08-17T17:27:11.890Z,57.09
2022-08-17T17:29:56.096Z,57.42
2022-08-17T17:32:43.051Z,57.69
2022-08-17T17:35:47.922Z,58.13
2022-08-17T17:38:22.271Z,58.86
2022-08-17T17:40:55.134Z,59.34
2022-08-17T17:43:39.751Z,59.91
2022-08-17T17:46:27.700Z,60.52
2022-08-17T17:48:58.181Z,61.27
2022-08-17T17:52:10.213Z,61.53
2022-08-17T17:55:03.619Z,62.48
2022-08-17T17:57:47.662Z,62.37
2022-08-17T18:00:23.669Z,62.65
2022-08-17T18:03:01.009Z,62.91
2022-08-17T18:06:01.164Z,63.48
2022-08-17T18:08:53.069Z,63.67
2022-08-17T18:11:25.113Z,63.86
2022-08-17T18:14:20.796Z,64.10
2022-08-17T18:16:55.503Z,64.13
2022-08-17T18:19:26.136Z,64.33
2022-08-17T18:22:21.479Z,64.62
2022-08-17T18:24:56.247Z,65.61
2022-08-17T18:27:24.405Z,65.87
2022-08-17T18:29:58.116Z,66.43
2022-08-17T18:32:37.803Z,66.93
2022-08-17T18:35:11.866Z,67.12
2022-08-17T18:37:54.123Z,67.56
2022-08-17T18:40:30.851Z,68.02
2022-08-17T18:43:08.849Z,68.30
2022-08-17T18:45:48.492Z,68.80
2022-08-17T18:48:38.517Z,69.48
2022-08-17T18:51:48.947Z,69.61
2022-08-17T18:54:25.817Z,69.81
2022-08-17T18:56:57.363Z,69.87
2022-08-17T18:59:50.323Z,70.42
2022-08-17T19:02:38.671Z,70.95
2022-08-17T19:05:30.093Z,71.76
2022-08-17T19:08:29.785Z,72.23
2022-08-17T19:11:09.658Z,72.42
2022-08-17T19:13:44.272Z,72.51
2022-08-17T19:16:46.547Z,72.97
2022-08-17T19:19:45.419Z,73.15
2022-08-17T19:22:40.738Z,73.89
2022-08-17T19:25:18.158Z,74.09
2022-08-17T19:27:58.146Z,73.88
2022-08-17T19:30:26.992Z,74.11
2022-08-17T19:33:01.802Z,74.50
2022-08-17T19:36:07.758Z,74.92
2022-08-17T19:39:06.175Z,75.06
2022-08-17T19:42:05.132Z,75.56
2022-08-17T19:45:12.628Z,75.63
2022-08-17T19:47:55.206Z,75.99
2022-08-17T19:50:43.178Z,76.21
2022-08-17T19:54:07.131Z,76.54
2022-08-17T19:56:44.225Z,77.06
2022-08-17T19:59:23.507Z,77.01
2022-08-17T20:01:54.789Z,76.94
2022-08-17T20:04:32.389Z,77.05
2022-08-17T20:07:06.908Z,76.90
2022-08-17T20:09:39.338Z,77.17
2022-08-17T20:12:26.916Z,77.01
2022-08-17T20:15:04.008Z,77.21
2022-08-17T20:17:40.766Z,77.32
2022-08-17T20:20:43.722Z,77.38
2022-08-17T20:23:23.725Z,77.77
2022-08-17T20:26:05.922Z,78.22
2022-08-17T20:28:39.326Z,78.70
2022-08-17T20:31:42.038Z,78.73
2022-08-17T20:34:36.869Z,78.69
2022-08-17T20:37:29.135Z,78.93
2022-08-17T20:39:57.462Z,79.31
2022-08-17T20:42:26.299Z,79.45
2022-08-17T20:45:21.757Z,79.73
2022-08-17T20:50:52.946Z,79.48
2022-08-17T20:53:56.172Z,79.43
2022-08-17T20:56:48.396Z,79.69
2022-08-17T20:59:30.674Z,79.92
2022-08-17T21:02:17.698Z,80.21
2022-08-17T21:04:50.195Z,80.38
2022-08-17T21:07:29.585Z,80.65
2022-08-17T21:10:16.145Z,80.95
2022-08-17T21:12:50.056Z,80.82
2022-08-17T21:15:43.744Z,80.91
2022-08-17T21:18:39.029Z,81.32
2022-08-17T21:21:33.001Z,81.12
2022-08-17T21:24:26.070Z,80.80
2022-08-17T21:26:55.635Z,80.79
2022-08-17T21:29:31.104Z,80.82
2022-08-17T21:32:05.401Z,81.10
2022-08-17T21:34:40.561Z,81.07
2022-08-17T21:37:23.707Z,80.96
2022-08-17T21:39:56.521Z,81.02
2022-08-17T21:42:32.190Z,81.22
2022-08-17T21:45:10.946Z,81.28
2022-08-17T21:47:45.375Z,81.17
2022-08-17T21:50:19.535Z,81.44
2022-08-17T21:52:50.150Z,81.53
2022-08-17T21:55:24.725Z,81.52
2022-08-17T21:58:12.184Z,81.37
2022-08-17T22:00:44.845Z,81.65
2022-08-17T22:03:26.476Z,81.77
2022-08-17T22:05:54.589Z,81.51
2022-08-17T22:08:25.997Z,81.52
2022-08-17T22:11:01.705Z,81.51
2022-08-17T22:13:30.139Z,81.56
2022-08-17T22:16:15.171Z,81.64
2022-08-17T22:18:53.872Z,81.69
2022-08-17T22:21:22.612Z,81.86
2022-08-17T22:24:06.195Z,82.14
2022-08-17T22:27:02.733Z,82.44
2022-08-17T22:30:00.493Z,82.60
2022-08-17T22:32:37.778Z,82.49
2022-08-17T22:35:26.941Z,82.58
2022-08-17T22:37:57.459Z,83.08
2022-08-17T22:40:30.768Z,83.20
2022-08-17T22:43:03.686Z,83.34
2022-08-17T22:45:33.766Z,83.42
2022-08-17T22:48:02.383Z,83.33
2022-08-17T22:50:33.388Z,83.26
2022-08-17T22:53:30.849Z,83.34
2022-08-17T22:56:17.988Z,83.59
2022-08-17T22:59:12.465Z,83.83
2022-08-17T23:01:42.607Z,83.91
2022-08-17T23:04:29.795Z,83.96
2022-08-17T23:06:58.081Z,84.05
2022-08-17T23:09:26.245Z,84.03
2022-08-17T23:11:59.023Z,84.12
2022-08-17T23:14:32.485Z,84.14
2022-08-17T23:17:02.007Z,84.20
2022-08-17T23:19:33.061Z,84.30
2022-08-17T23:22:04.586Z,84.44
2022-08-17T23:24:39.607Z,84.47
2022-08-17T23:27:08.443Z,84.60
2022-08-17T23:29:41.840Z,84.74
2022-08-17T23:32:14.947Z,84.89
2022-08-17T23:34:45.119Z,84.86
2022-08-17T23:37:13.265Z,85.02
2022-08-17T23:39:45.256Z,85.15
2022-08-17T23:42:24.827Z,85.24
2022-08-17T23:44:53.192Z,85.23
2022-08-17T23:47:21.647Z,85.35
2022-08-17T23:49:49.753Z,85.36
2022-08-17T23:52:23.042Z,85.41
2022-08-17T23:54:51.210Z,85.63
2022-08-17T23:57:33.857Z,85.83
